Kota Kinabalu, Malaysia
Current Conditions -  °F | °C
As of 6:00 AM on Thursday 29 Jan 2015 (Local Time) from WBKK Reporting Station
Broken Clouds Broken Clouds  
Wind Chill: 75°   Ceiling: 28000
Heat Index: 75°   Visibility: 6mi
Dew Point: 75°   Wind: 3mph
Humidity: 100%   Direction: 100°E
Pressure: 29.8"   Gusts: NA
Location:  5.97°N, 116.07°E
Report Text: WBKK 282200Z 10003KT 9999 FEW014 SCT140 BKN280 24/24 Q1009 NOSIG
Loading
Personal Weather Stations






























Interactive Weather Map New forecast layout! Learn more

10-Day Weather Forecast

Advertisements
Track Severe Weather on mobile